createdAt,value
2019-01-25T00:00:28.897Z,99922.59
2019-01-25T00:03:00.269Z,99913.77
2019-01-25T00:05:28.330Z,99918.20
2019-01-25T00:07:56.395Z,99915.39
2019-01-25T00:10:24.493Z,99927.16
2019-01-25T00:12:52.531Z,99929.13
2019-01-25T00:15:22.319Z,99934.94
2019-01-25T00:17:51.893Z,99938.63
2019-01-25T00:20:21.445Z,99940.23
2019-01-25T00:22:49.618Z,99935.84
2019-01-25T00:25:17.672Z,99938.25
2019-01-25T00:27:45.751Z,99943.72
2019-01-25T00:30:15.925Z,99949.05
2019-01-25T00:32:45.065Z,99954.13
2019-01-25T00:35:13.128Z,99957.02
2019-01-25T00:37:41.859Z,99957.67
2019-01-25T00:40:11.715Z,99952.45
2019-01-25T00:42:39.887Z,99957.09
2019-01-25T00:45:09.335Z,99956.66
2019-01-25T00:47:37.699Z,99950.44
2019-01-25T00:50:11.508Z,99954.06
2019-01-25T00:52:39.662Z,99958.31
2019-01-25T00:55:08.673Z,99958.95
2019-01-25T00:57:36.762Z,99960.70
2019-01-25T01:00:11.800Z,99969.69
2019-01-25T01:02:40.225Z,99957.66
2019-01-25T01:05:08.595Z,99953.45
2019-01-25T01:07:36.716Z,99953.45
2019-01-25T01:10:06.016Z,99954.48
2019-01-25T01:12:34.061Z,99955.11
2019-01-25T01:15:02.758Z,99959.07
2019-01-25T01:17:31.082Z,99961.28
2019-01-25T01:19:59.149Z,99964.67
2019-01-25T01:22:27.289Z,99967.61
2019-01-25T01:24:55.343Z,99967.04
2019-01-25T01:27:23.461Z,99958.80
2019-01-25T01:29:54.554Z,99963.83
2019-01-25T01:32:22.693Z,99968.88
2019-01-25T01:34:50.777Z,99970.62
2019-01-25T01:37:21.371Z,99975.86
2019-01-25T01:39:49.779Z,99975.97
2019-01-25T01:42:17.807Z,99977.89
2019-01-25T01:44:45.878Z,99967.34
2019-01-25T01:47:13.937Z,99978.27
2019-01-25T01:49:42.096Z,99980.47
2019-01-25T01:52:10.140Z,99985.97
2019-01-25T01:54:38.205Z,99988.83
2019-01-25T01:57:06.279Z,99985.70
2019-01-25T01:59:34.341Z,99985.70
2019-01-25T02:02:03.008Z,99979.38
2019-01-25T02:04:31.186Z,99980.30
2019-01-25T02:06:59.235Z,99982.48
2019-01-25T02:09:27.284Z,99987.72
2019-01-25T02:11:55.358Z,99984.79
2019-01-25T02:14:23.454Z,99987.72
2019-01-25T02:16:51.510Z,99985.61
2019-01-25T02:19:20.105Z,99978.93
2019-01-25T02:21:48.155Z,99970.67
2019-01-25T02:24:16.202Z,99969.95
2019-01-25T02:26:44.257Z,99973.52
2019-01-25T02:29:12.260Z,99977.37
2019-01-25T02:31:40.320Z,99987.02
2019-01-25T02:34:08.352Z,99990.13
2019-01-25T02:36:36.404Z,99995.43
2019-01-25T02:39:07.352Z,99997.37
2019-01-25T02:41:35.432Z,100000.55
2019-01-25T02:44:04.183Z,99996.42
2019-01-25T02:46:32.246Z,99993.29
2019-01-25T02:49:00.350Z,99992.73
2019-01-25T02:51:28.408Z,99988.05
2019-01-25T02:53:56.456Z,99991.38
2019-01-25T02:56:24.634Z,99992.20
2019-01-25T02:58:52.720Z,99986.69
2019-01-25T03:01:20.777Z,99985.41
2019-01-25T03:03:48.814Z,99974.38
2019-01-25T03:06:16.971Z,99975.76
2019-01-25T03:08:46.651Z,99984.75
2019-01-25T03:11:14.891Z,99982.29
2019-01-25T03:13:43.254Z,99979.82
2019-01-25T03:16:11.336Z,99977.89
2019-01-25T03:18:39.352Z,99973.77
2019-01-25T03:21:07.402Z,99979.38
2019-01-25T03:23:35.476Z,99976.80
2019-01-25T03:26:03.610Z,99971.20
2019-01-25T03:28:31.921Z,99973.77
2019-01-25T03:31:01.089Z,99976.44
2019-01-25T03:33:29.154Z,99975.52
2019-01-25T03:35:57.265Z,99986.16
2019-01-25T03:38:25.440Z,99989.45
2019-01-25T03:40:55.091Z,99989.74
2019-01-25T03:43:23.584Z,99996.42
2019-01-25T03:45:51.637Z,99993.29
2019-01-25T03:48:21.737Z,99983.47
2019-01-25T03:50:49.841Z,99976.58
2019-01-25T03:53:19.225Z,99981.27
2019-01-25T03:55:47.268Z,99988.05
2019-01-25T03:58:15.311Z,99992.30
2019-01-25T04:00:43.377Z,99991.44
2019-01-25T04:03:11.425Z,99997.44
2019-01-25T04:05:39.574Z,99990.91
2019-01-25T04:08:07.755Z,99998.05
2019-01-25T04:10:35.841Z,100007.31
2019-01-25T04:13:04.206Z,100002.17
2019-01-25T04:15:34.068Z,100006.88
2019-01-25T04:18:02.462Z,100005.95
2019-01-25T04:20:30.499Z,100007.96
2019-01-25T04:22:58.578Z,100007.96
2019-01-25T04:25:26.849Z,100016.39
2019-01-25T04:27:54.937Z,100007.39
2019-01-25T04:30:25.820Z,100013.75
2019-01-25T04:32:54.186Z,100013.00
2019-01-25T04:35:22.348Z,100013.00
2019-01-25T04:37:50.727Z,100015.47
2019-01-25T04:40:18.995Z,100015.11
2019-01-25T04:42:47.478Z,100013.10
2019-01-25T04:45:17.684Z,100018.61
2019-01-25T04:47:45.830Z,100017.06
2019-01-25T04:50:19.806Z,100018.05
2019-01-25T04:52:48.338Z,100022.38
2019-01-25T04:55:23.600Z,100026.34
2019-01-25T04:57:51.700Z,100021.76
2019-01-25T05:00:21.217Z,100017.08
2019-01-25T05:02:57.447Z,100024.80
2019-01-25T05:05:26.076Z,100023.05
2019-01-25T05:08:04.648Z,100017.91
2019-01-25T05:10:32.702Z,100016.98
2019-01-25T05:13:00.810Z,100013.13
2019-01-25T05:15:29.859Z,100012.30
2019-01-25T05:17:59.021Z,100011.47
2019-01-25T05:20:28.207Z,100011.11
2019-01-25T05:22:57.987Z,100012.94
2019-01-25T05:25:26.917Z,100017.72
2019-01-25T05:27:55.061Z,100020.28
2019-01-25T05:30:24.062Z,100023.58
2019-01-25T05:32:52.139Z,100025.42
2019-01-25T05:35:21.869Z,100026.81
2019-01-25T05:37:49.949Z,100032.31
2019-01-25T05:40:23.599Z,100034.42
2019-01-25T05:42:51.804Z,100036.99
2019-01-25T05:45:21.665Z,100031.49
2019-01-25T05:47:49.747Z,100036.63
2019-01-25T05:50:17.779Z,100030.20
2019-01-25T05:52:46.945Z,100032.42
2019-01-25T05:55:17.546Z,100037.45
2019-01-25T05:57:45.950Z,100042.23
2019-01-25T06:00:17.742Z,100042.70
2019-01-25T06:02:45.877Z,100044.80
2019-01-25T06:05:14.016Z,100043.78
2019-01-25T06:07:42.108Z,100049.28
2019-01-25T06:10:10.760Z,100054.89
2019-01-25T06:12:39.131Z,100059.31
2019-01-25T06:15:07.788Z,100059.77
2019-01-25T06:17:35.939Z,100060.23
2019-01-25T06:20:05.751Z,100060.33
2019-01-25T06:22:33.790Z,100061.05
2019-01-25T06:25:01.946Z,100065.10
2019-01-25T06:27:36.083Z,100070.61
2019-01-25T06:30:10.049Z,100066.75
2019-01-25T06:32:38.168Z,100076.11
2019-01-25T06:35:06.394Z,100076.02
2019-01-25T06:37:34.433Z,100079.41
2019-01-25T06:40:03.392Z,100081.97
2019-01-25T06:42:31.412Z,100085.20
2019-01-25T06:44:59.592Z,100086.28
2019-01-25T06:47:27.663Z,100091.33
2019-01-25T06:49:55.695Z,100081.04
2019-01-25T06:52:23.739Z,100095.58
2019-01-25T06:54:51.797Z,100103.29
2019-01-25T06:57:26.178Z,100104.19
2019-01-25T06:59:54.292Z,100105.57
2019-01-25T07:02:27.621Z,100102.53
2019-01-25T07:04:55.667Z,100108.04
2019-01-25T07:07:28.619Z,100113.84
2019-01-25T07:09:56.676Z,100110.08
2019-01-25T07:12:24.733Z,100117.80
2019-01-25T07:14:52.795Z,100121.09
2019-01-25T07:17:22.232Z,100130.09
2019-01-25T07:19:50.299Z,100129.83
2019-01-25T07:22:18.365Z,100128.61
2019-01-25T07:24:46.809Z,100130.36
2019-01-25T07:27:14.928Z,100131.19
2019-01-25T07:29:42.986Z,100135.44
2019-01-25T07:32:11.048Z,100144.70
2019-01-25T07:34:39.129Z,100151.39
2019-01-25T07:37:07.259Z,100150.86
2019-01-25T07:39:35.371Z,100158.57
2019-01-25T07:42:03.436Z,100158.18
2019-01-25T07:44:31.531Z,100159.03
2019-01-25T07:46:59.792Z,100163.16
2019-01-25T07:49:28.992Z,100166.19
2019-01-25T07:51:57.065Z,100167.64
2019-01-25T07:54:25.108Z,100167.84
2019-01-25T07:56:53.188Z,100157.91
2019-01-25T07:59:22.826Z,100162.96
2019-01-25T08:01:51.045Z,100163.32
2019-01-25T08:04:22.019Z,100161.05
2019-01-25T08:06:50.320Z,100160.69
2019-01-25T08:09:18.370Z,100163.72
2019-01-25T08:11:46.418Z,100163.98
2019-01-25T08:14:14.473Z,100161.60
2019-01-25T08:16:42.625Z,100173.34
2019-01-25T08:19:10.859Z,100178.78
2019-01-25T08:21:39.087Z,100170.30
2019-01-25T08:24:07.212Z,100174.52
2019-01-25T08:26:35.322Z,100171.42
2019-01-25T08:29:04.569Z,100172.87
2019-01-25T08:31:32.788Z,100172.03
2019-01-25T08:34:01.139Z,100179.48
2019-01-25T08:36:31.087Z,100178.39
2019-01-25T08:38:59.143Z,100178.08
2019-01-25T08:41:27.257Z,100177.45
2019-01-25T08:43:55.430Z,100178.17
2019-01-25T08:46:23.473Z,100178.99
2019-01-25T08:48:51.898Z,100179.81
2019-01-25T08:51:20.023Z,100186.44
2019-01-25T08:53:48.601Z,100190.92
2019-01-25T08:56:16.757Z,100194.05
2019-01-25T08:58:45.825Z,100191.19
2019-01-25T09:01:14.198Z,100192.09
2019-01-25T09:03:42.370Z,100193.00
2019-01-25T09:06:10.435Z,100191.77
2019-01-25T09:08:38.517Z,100184.23
2019-01-25T09:11:06.577Z,100186.16
2019-01-25T09:13:35.762Z,100187.42
2019-01-25T09:16:04.183Z,100186.64
2019-01-25T09:18:33.572Z,100178.38
2019-01-25T09:21:01.636Z,100191.05
2019-01-25T09:23:29.696Z,100192.16
2019-01-25T09:26:00.995Z,100197.02
2019-01-25T09:28:29.543Z,100204.11
2019-01-25T09:30:57.624Z,100206.47
2019-01-25T09:33:25.913Z,100206.29
2019-01-25T09:35:54.305Z,100211.23
2019-01-25T09:38:22.362Z,100220.07
2019-01-25T09:40:50.447Z,100217.85
2019-01-25T09:43:18.900Z,100225.48
2019-01-25T09:45:46.951Z,100221.40
2019-01-25T09:48:14.992Z,100221.11
2019-01-25T09:50:43.227Z,100211.88
2019-01-25T09:53:12.738Z,100216.39
2019-01-25T09:55:42.255Z,100223.77
2019-01-25T09:58:13.823Z,100220.90
2019-01-25T10:00:58.979Z,100227.73
2019-01-25T10:03:27.030Z,100234.54
2019-01-25T10:05:55.115Z,100238.41
2019-01-25T10:08:23.192Z,100235.36
2019-01-25T10:10:51.229Z,100234.79
2019-01-25T10:13:19.290Z,100227.34
2019-01-25T10:15:47.339Z,100232.53
2019-01-25T10:18:15.446Z,100230.48
2019-01-25T10:20:43.529Z,100230.55
2019-01-25T10:23:11.530Z,100229.88
2019-01-25T10:25:39.577Z,100230.41
2019-01-25T10:28:07.627Z,100239.03
2019-01-25T10:30:35.631Z,100233.69
2019-01-25T10:33:03.785Z,100234.29
2019-01-25T10:35:31.956Z,100232.23
2019-01-25T10:37:59.999Z,100240.58
2019-01-25T10:40:28.067Z,100239.92
2019-01-25T10:42:56.148Z,100235.84
2019-01-25T10:45:29.493Z,100233.78
2019-01-25T10:47:57.596Z,100231.37
2019-01-25T10:50:25.647Z,100235.66
2019-01-25T10:52:53.756Z,100233.67
2019-01-25T10:55:21.825Z,100233.56
2019-01-25T10:57:51.513Z,100233.37
2019-01-25T11:00:19.968Z,100226.34
2019-01-25T11:02:48.075Z,100229.08
2019-01-25T11:05:19.426Z,100221.23
2019-01-25T11:07:48.563Z,100217.98
2019-01-25T11:10:16.873Z,100217.29
2019-01-25T11:12:44.969Z,100218.73
2019-01-25T11:15:17.508Z,100220.27
2019-01-25T11:17:45.699Z,100215.11
2019-01-25T11:20:17.350Z,100210.41
2019-01-25T11:22:46.646Z,100204.42
2019-01-25T11:25:26.037Z,100208.77
2019-01-25T11:27:54.554Z,100201.38
2019-01-25T11:30:22.686Z,100203.30
2019-01-25T11:32:50.777Z,100204.59
2019-01-25T11:35:18.805Z,100206.52
2019-01-25T11:37:46.921Z,100204.75
2019-01-25T11:40:27.219Z,100205.11
2019-01-25T11:42:55.810Z,100200.10
2019-01-25T11:45:25.261Z,100208.44
2019-01-25T11:47:53.350Z,100201.98
2019-01-25T11:50:21.519Z,100206.13
2019-01-25T11:52:49.597Z,100201.55
2019-01-25T11:55:18.308Z,100192.40
2019-01-25T11:57:46.792Z,100199.13
2019-01-25T12:00:21.664Z,100194.78
2019-01-25T12:02:49.913Z,100195.61
2019-01-25T12:05:20.859Z,100191.61
2019-01-25T12:07:49.259Z,100195.73
2019-01-25T12:10:20.798Z,100194.70
2019-01-25T12:12:48.879Z,100193.06
2019-01-25T12:15:18.739Z,100193.06
2019-01-25T12:17:46.808Z,100190.47
2019-01-25T12:20:23.988Z,100189.53
2019-01-25T12:22:52.155Z,100190.13
2019-01-25T12:25:20.215Z,100194.91
2019-01-25T12:27:48.383Z,100188.59
2019-01-25T12:30:37.898Z,100191.33
2019-01-25T12:33:06.703Z,100192.74
2019-01-25T12:35:38.072Z,100202.29
2019-01-25T12:38:06.267Z,100200.41
2019-01-25T12:40:34.379Z,100203.27
2019-01-25T12:43:03.311Z,100201.97
2019-01-25T12:45:31.597Z,100200.95
2019-01-25T12:47:59.785Z,100206.23
2019-01-25T12:50:57.611Z,100210.02
2019-01-25T12:53:26.996Z,100205.91
2019-01-25T12:55:55.071Z,100202.50
2019-01-25T12:58:23.232Z,100204.94
2019-01-25T13:00:51.935Z,100209.67
2019-01-25T13:03:20.058Z,100207.08
2019-01-25T13:05:48.210Z,100202.12
2019-01-25T13:08:16.344Z,100205.64
2019-01-25T13:10:45.608Z,100207.64
2019-01-25T13:13:13.673Z,100207.08
2019-01-25T13:15:42.043Z,100211.05
2019-01-25T13:18:10.128Z,100208.38
2019-01-25T13:20:42.049Z,100205.44
2019-01-25T13:23:10.283Z,100204.41
2019-01-25T13:25:38.440Z,100198.65
2019-01-25T13:28:06.607Z,100200.41
2019-01-25T13:30:34.769Z,100202.41
2019-01-25T13:33:03.040Z,100199.14
2019-01-25T13:35:31.144Z,100198.09
2019-01-25T13:37:59.242Z,100203.02
2019-01-25T13:40:27.566Z,100190.35
2019-01-25T13:42:55.744Z,100184.92
2019-01-25T13:45:25.547Z,100179.30
2019-01-25T13:47:53.851Z,100174.37
2019-01-25T13:50:24.747Z,100172.02
2019-01-25T13:52:52.800Z,100166.72
2019-01-25T13:55:21.113Z,100168.86
2019-01-25T13:57:49.258Z,100168.48
2019-01-25T14:00:22.935Z,100172.36
2019-01-25T14:02:52.244Z,100171.33
2019-01-25T14:05:20.431Z,100172.38
2019-01-25T14:07:48.523Z,100174.28
2019-01-25T14:10:20.936Z,100183.56
2019-01-25T14:12:49.270Z,100181.69
2019-01-25T14:15:17.576Z,100178.66
2019-01-25T14:17:45.619Z,100181.59
2019-01-25T14:20:23.217Z,100176.28
2019-01-25T14:22:47.190Z,100172.99
2019-01-25T14:25:15.504Z,100173.20
2019-01-25T14:27:43.852Z,100159.92
2019-01-25T14:30:20.194Z,100162.98
2019-01-25T14:32:48.234Z,100170.39
2019-01-25T14:35:16.339Z,100170.39
2019-01-25T14:37:44.400Z,100184.27
2019-01-25T14:40:12.604Z,100185.20
2019-01-25T14:42:40.895Z,100195.08
2019-01-25T14:45:09.977Z,100210.00
2019-01-25T14:47:38.079Z,100212.94
2019-01-25T14:50:11.296Z,100211.77
2019-01-25T14:52:39.365Z,100195.43
2019-01-25T14:55:07.543Z,100196.72
2019-01-25T14:57:35.577Z,100197.55
2019-01-25T15:00:05.427Z,100197.89
2019-01-25T15:02:34.472Z,100194.48
2019-01-25T15:05:04.250Z,100191.55
2019-01-25T15:07:32.306Z,100200.80
2019-01-25T15:10:00.385Z,100201.54
2019-01-25T15:12:28.417Z,100195.64
2019-01-25T15:14:56.499Z,100202.10
2019-01-25T15:17:24.560Z,100209.51
2019-01-25T15:19:54.482Z,100212.92
2019-01-25T15:22:22.633Z,100215.50
2019-01-25T15:24:50.735Z,100208.33
2019-01-25T15:27:19.100Z,100211.39
2019-01-25T15:29:47.230Z,100207.16
2019-01-25T15:32:15.439Z,100204.23
2019-01-25T15:34:45.351Z,100197.41
2019-01-25T15:37:14.688Z,100193.62
2019-01-25T15:39:42.831Z,100193.27
2019-01-25T15:42:11.091Z,100185.63
2019-01-25T15:44:39.216Z,100190.56
2019-01-25T15:47:07.661Z,100187.25
2019-01-25T15:49:35.799Z,100190.30
2019-01-25T15:52:04.389Z,100173.73
2019-01-25T15:54:32.577Z,100181.70
2019-01-25T15:57:00.697Z,100179.36
2019-01-25T15:59:29.268Z,100182.53
2019-01-25T16:01:57.352Z,100186.84
2019-01-25T16:04:25.480Z,100182.53
2019-01-25T16:06:53.830Z,100185.20
2019-01-25T16:09:23.689Z,100185.79
2019-01-25T16:11:51.897Z,100190.84
2019-01-25T16:14:22.970Z,100191.19
2019-01-25T16:16:52.213Z,100193.78
2019-01-25T16:19:20.277Z,100198.95
2019-01-25T16:21:48.365Z,100204.59
2019-01-25T16:24:16.412Z,100207.17
2019-01-25T16:26:44.716Z,100209.41
2019-01-25T16:29:13.597Z,100215.39
2019-01-25T16:31:43.950Z,100206.00
2019-01-25T16:34:13.129Z,100202.94
2019-01-25T16:36:41.277Z,100206.00
2019-01-25T16:39:10.418Z,100201.77
2019-01-25T16:41:38.552Z,100208.34
2019-01-25T16:44:06.851Z,100217.04
2019-01-25T16:46:35.125Z,100207.99
2019-01-25T16:49:03.261Z,100206.23
2019-01-25T16:51:31.380Z,100204.55
2019-01-25T16:54:01.897Z,100191.87
2019-01-25T16:56:30.009Z,100194.09
2019-01-25T16:58:59.304Z,100191.16
2019-01-25T17:01:28.580Z,100193.01
2019-01-25T17:03:56.658Z,100192.55
2019-01-25T17:06:24.746Z,100188.08
2019-01-25T17:08:52.779Z,100195.95
2019-01-25T17:11:22.897Z,100196.42
2019-01-25T17:13:50.975Z,100201.59
2019-01-25T17:16:19.279Z,100202.14
2019-01-25T17:18:47.338Z,100206.60
2019-01-25T17:21:15.444Z,100204.02
2019-01-25T17:23:43.514Z,100204.13
2019-01-25T17:26:11.637Z,100198.97
2019-01-25T17:28:39.867Z,100205.16
2019-01-25T17:31:08.118Z,100212.36
2019-01-25T17:33:36.140Z,100207.30
2019-01-25T17:36:04.241Z,100211.18
2019-01-25T17:38:32.362Z,100206.09
2019-01-25T17:41:00.672Z,100210.91
2019-01-25T17:43:30.266Z,100213.14
2019-01-25T17:45:58.485Z,100221.72
2019-01-25T17:48:27.030Z,100226.88
2019-01-25T17:50:55.171Z,100224.66
2019-01-25T17:53:24.524Z,100224.66
2019-01-25T17:55:52.973Z,100222.19
2019-01-25T17:58:21.137Z,100218.42
2019-01-25T18:00:52.864Z,100210.32
2019-01-25T18:03:21.049Z,100212.44
2019-01-25T18:05:49.186Z,100210.79
2019-01-25T18:08:17.576Z,100207.47
2019-01-25T18:10:45.753Z,100205.23
2019-01-25T18:13:13.891Z,100209.11
2019-01-25T18:15:43.002Z,100208.20
2019-01-25T18:18:11.317Z,100218.16
2019-01-25T18:20:40.497Z,100223.70
2019-01-25T18:23:08.602Z,100218.54
2019-01-25T18:25:53.636Z,100217.69
2019-01-25T18:28:27.286Z,100211.34
2019-01-25T18:31:02.012Z,100223.44
2019-01-25T18:33:31.280Z,100219.68
2019-01-25T18:35:59.631Z,100215.80
2019-01-25T18:38:28.041Z,100218.14
2019-01-25T18:40:56.298Z,100222.11
2019-01-25T18:43:24.482Z,100217.30
2019-01-25T19:35:20.728Z,100175.87
2019-01-25T19:37:48.958Z,100188.05
2019-01-25T19:40:18.674Z,100182.05
2019-01-25T19:42:47.390Z,100179.94
2019-01-25T19:45:25.163Z,100180.88
2019-01-25T19:47:53.411Z,100177.83
2019-01-25T19:50:21.818Z,100177.00
2019-01-25T19:52:50.416Z,100183.81
2019-01-25T19:55:23.809Z,100173.84
2019-01-25T19:57:52.572Z,100174.66
2019-01-25T20:00:38.865Z,100177.25
2019-01-25T20:03:07.884Z,100182.87
2019-01-25T20:05:49.573Z,100179.36
2019-01-25T20:08:17.852Z,100176.31
2019-01-25T20:10:46.307Z,100178.42
2019-01-25T20:13:14.420Z,100177.48
2019-01-25T20:15:42.453Z,100177.48
2019-01-25T20:18:10.680Z,100182.56
2019-01-25T20:20:39.003Z,100176.82
2019-01-25T20:23:07.184Z,100166.60
2019-01-25T20:25:35.237Z,100170.83
2019-01-25T20:28:05.133Z,100187.03
2019-01-25T20:30:33.318Z,100189.50
2019-01-25T20:33:06.120Z,100191.53
2019-01-25T20:35:41.843Z,100186.92
2019-01-25T20:38:10.558Z,100183.16
2019-01-25T20:40:38.811Z,100188.91
2019-01-25T20:43:07.013Z,100185.03
2019-01-25T20:45:37.486Z,100185.50
2019-01-25T20:48:06.879Z,100189.61
2019-01-25T20:50:35.465Z,100194.66
2019-01-25T20:53:04.673Z,100191.14
2019-01-25T20:55:32.826Z,100189.85
2019-01-25T20:58:01.027Z,100187.19
2019-01-25T21:00:34.733Z,100187.07
2019-01-25T21:03:17.329Z,100194.23
2019-01-25T21:05:46.375Z,100194.59
2019-01-25T21:08:14.421Z,100188.95
2019-01-25T21:10:42.402Z,100190.98
2019-01-25T21:13:10.455Z,100189.34
2019-01-25T21:15:39.593Z,100179.48
2019-01-25T21:18:08.007Z,100165.16
2019-01-25T21:20:40.930Z,100161.64
2019-01-25T21:23:08.983Z,100166.22
2019-01-25T21:25:37.189Z,100168.80
2019-01-25T21:28:05.507Z,100171.38
2019-01-25T21:30:34.716Z,100154.12
2019-01-25T21:33:04.922Z,100158.27
2019-01-25T21:35:32.913Z,100156.86
2019-01-25T21:38:02.352Z,100151.92
2019-01-25T21:40:32.541Z,100155.68
2019-01-25T21:43:00.789Z,100158.89
2019-01-25T21:45:32.044Z,100157.01
2019-01-25T21:48:02.195Z,100159.03
2019-01-25T21:50:35.617Z,100156.22
2019-01-25T21:53:04.876Z,100145.20
2019-01-25T21:55:32.943Z,100141.45
2019-01-25T21:58:05.504Z,100145.47
2019-01-25T22:00:31.963Z,100145.96
2019-01-25T22:03:00.078Z,100138.80
2019-01-25T22:05:28.394Z,100150.92
2019-01-25T22:07:56.452Z,100156.59
2019-01-25T22:10:34.162Z,100157.52
2019-01-25T22:13:02.225Z,100153.90
2019-01-25T22:15:32.050Z,100148.48
2019-01-25T22:18:00.087Z,100146.52
2019-01-25T22:20:29.285Z,100129.94
2019-01-25T22:22:57.711Z,100128.05
2019-01-25T22:25:25.751Z,100124.91
2019-01-25T22:27:55.707Z,100116.55
2019-01-25T22:30:25.101Z,100116.66
2019-01-25T22:32:53.682Z,100100.92
2019-01-25T22:35:21.699Z,100110.67
2019-01-25T22:37:49.701Z,100118.92
2019-01-25T22:40:29.696Z,100117.38
2019-01-25T22:42:58.259Z,100111.99
2019-01-25T22:45:29.663Z,100119.51
2019-01-25T22:47:59.626Z,100119.41
2019-01-25T22:50:30.755Z,100117.88
2019-01-25T22:52:58.756Z,100109.29
2019-01-25T22:55:28.272Z,100108.70
2019-01-25T22:57:56.310Z,100112.01
2019-01-25T23:01:01.598Z,100118.48
2019-01-25T23:03:45.403Z,100123.41
2019-01-25T23:06:47.813Z,100120.22
2019-01-25T23:09:32.590Z,100106.46
2019-01-25T23:12:00.564Z,100108.23
2019-01-25T23:14:28.629Z,100104.34
2019-01-25T23:16:56.750Z,100105.42
2019-01-25T23:19:24.815Z,100101.77
2019-01-25T23:21:52.828Z,100101.64
2019-01-25T23:24:20.848Z,100106.22
2019-01-25T23:26:49.847Z,100096.72
2019-01-25T23:29:17.917Z,100100.00
2019-01-25T23:31:45.920Z,100094.34
2019-01-25T23:34:13.934Z,100100.34
2019-01-25T23:36:41.959Z,100099.05
2019-01-25T23:39:10.855Z,100094.57
2019-01-25T23:41:38.850Z,100089.88
2019-01-25T23:44:06.926Z,100091.03
2019-01-25T23:46:34.908Z,100090.00
2019-01-25T23:49:02.963Z,100080.59
2019-01-25T23:51:30.996Z,100081.76
2019-01-25T23:54:00.009Z,100078.22
2019-01-25T23:56:28.020Z,100081.28
2019-01-25T23:58:56.315Z,100081.63
